Hansa Limburg — A8IH6 — position and weather

sailwx.info

Track history (hours):
 
Tides and Currents Weather Stations Pressure Air Temp Water Temp Dewpoint Dewpoint Depression Visibility Wind Speed Wind Dir Waves Ship Positions

Hansa Limburg

Last reported at 2015-Aug-05 09:33 UTC. Time now 2015-Aug-05 10:31 UTC.
Position N 40°50' E 014°17'.

Length 175.5 m; beam 27.4 m; draft 10.9 m.

Type: Ship (hazmat cat A). MMSI: 636090980.

Date/timePositionNaut miles runAvg speedWind from/ knotsBaromVisibWave heightAir tempDewpointWater temp
2015-Aug-05 09:33N 40°50' E 014°17'0 0.0
2015-Aug-05 08:33N 40°50' E 014°17'0 0.0
2015-Aug-05 07:33N 40°50' E 014°17'0 0.0
2015-Aug-05 06:33N 40°50' E 014°17'0 0.0
2015-Aug-05 05:24N 40°50' E 014°17'0 0.0
2015-Aug-05 04:33N 40°50' E 014°17'3 2.9
2015-Aug-05 03:33N 40°47' E 014°17'3 2.6
2015-Aug-05 02:32N 40°45' E 014°17'1212.3
2015-Aug-05 01:34N 40°39' E 014°03'1716.6
2015-Aug-05 00:33N 40°42' E 013°42'1817.8
2015-Aug-04 23:31N 40°55' E 013°25'1717.8
2015-Aug-04 22:33N 41°05' E 013°06'1817.8
2015-Aug-04 21:33N 41°15' E 012°46'1817.8
2015-Aug-04 20:33N 41°25' E 012°27'1817.9
2015-Aug-04 19:33N 41°35' E 012°07'1818.0
2015-Aug-04 18:34N 41°45' E 011°48'1817.6
2015-Aug-04 17:33N 41°55' E 011°28'1717.3
2015-Aug-04 16:33N 42°05' E 011°09'1717.4
2015-Aug-04 15:33N 42°15' E 010°50'1916.7
2015-Aug-04 14:23N 42°32' E 010°37'1518.4
2015-Aug-04 13:34N 42°47' E 010°33'1818.0
2015-Aug-04 12:34N 43°03' E 010°22'1817.9
2015-Aug-04 11:34N 43°20' E 010°15'1312.5
2015-Aug-04 10:34N 43°33' E 010°17'2 1.8
2015-Aug-04 09:31N 43°35' E 010°18'0 0.0
2015-Aug-04 08:28N 43°35' E 010°18'0 0.0
2015-Aug-04 07:33N 43°35' E 010°18'0 0.0
2015-Aug-04 06:28N 43°35' E 010°18'0 0.0
2015-Aug-04 05:31N 43°35' E 010°18'0 0.0
2015-Aug-04 04:31N 43°35' E 010°18'0 0.0
2015-Aug-04 03:33N 43°35' E 010°18'0 0.0
2015-Aug-04 02:33N 43°35' E 010°18'0 0.0
2015-Aug-04 01:33N 43°35' E 010°18'0 0.0
2015-Aug-04 00:33N 43°35' E 010°18'0 0.2
2015-Aug-03 23:33N 43°34' E 010°18'4 3.5
2015-Aug-03 22:33N 43°31' E 010°16'3 2.7
2015-Aug-03 21:33N 43°30' E 010°13'1414.2
2015-Aug-03 20:33N 43°34' E 009°54'1818.3
2015-Aug-03 19:33N 43°46' E 009°36'1818.2
2015-Aug-03 18:33N 43°59' E 009°17'1818.2
2015-Aug-03 17:33N 44°11' E 008°59'1616.5
2015-Aug-03 16:33N 44°23' E 008°43'4 3.4
2015-Aug-03 15:32N 44°25' E 008°47'0 0.0
2015-Aug-03 14:34N 44°25' E 008°47'0 0.0
2015-Aug-03 13:34N 44°25' E 008°47'0 0.0
2015-Aug-03 12:34N 44°25' E 008°47'0 0.0
2015-Aug-03 11:34N 44°25' E 008°47'0 0.0
2015-Aug-03 10:33N 44°25' E 008°47'0 0.0
2015-Aug-03 09:34N 44°25' E 008°47'0 0.0
2015-Aug-03 08:33N 44°25' E 008°47'0 0.0
2015-Aug-03 07:34N 44°25' E 008°47'0 0.0
2015-Aug-03 06:34N 44°25' E 008°47'0 0.0
2015-Aug-03 05:33N 44°25' E 008°47'0 0.0
2015-Aug-03 04:34N 44°25' E 008°47'0 0.2
2015-Aug-03 03:34N 44°25' E 008°47'4 4.2
2015-Aug-03 02:34N 44°22' E 008°43'5 5.5
2015-Aug-03 01:34N 44°18' E 008°48'1312.5
2015-Aug-03 00:33N 44°07' E 008°57'1312.5
2015-Aug-02 23:33N 43°56' E 009°06'1312.7
2015-Aug-02 22:33N 43°45' E 009°15'1312.6
2015-Aug-02 21:33N 43°34' E 009°23'1312.9
2015-Aug-02 20:33N 43°22' E 009°29'1313.1
2015-Aug-02 19:33N 43°10' E 009°35'1413.1
2015-Aug-02 18:30N 42°57' E 009°41'1212.4
2015-Aug-02 17:33N 42°45' E 009°43'1212.1
2015-Aug-02 16:32N 42°33' E 009°46'21411.8
2015-Aug-01 22:26N 38°60' E 009°25'1214.0
2015-Aug-01 21:33N 39°05' E 009°11'9 9.2
2015-Aug-01 20:33N 39°13' E 009°04'0 0.0
2015-Aug-01 19:33N 39°13' E 009°04'0 0.0
2015-Aug-01 18:33N 39°13' E 009°04'0 0.0
2015-Aug-01 17:31N 39°13' E 009°04'0 0.0
2015-Aug-01 16:33N 39°13' E 009°04'0 0.0
2015-Aug-01 15:33N 39°13' E 009°04'0 0.0
2015-Aug-01 14:32N 39°13' E 009°04'0 0.0
2015-Aug-01 13:33N 39°13' E 009°04'0 0.0
2015-Aug-01 12:33N 39°13' E 009°04'0 0.0
2015-Aug-01 11:33N 39°13' E 009°04'0 0.0
2015-Aug-01 10:32N 39°13' E 009°04'0 0.0
2015-Aug-01 09:33N 39°13' E 009°04'0 0.0
2015-Aug-01 08:33N 39°13' E 009°04'0 0.0
2015-Aug-01 07:33N 39°13' E 009°04'0 0.0
2015-Aug-01 06:33N 39°13' E 009°04'0 0.0
2015-Aug-01 05:33N 39°13' E 009°04'0 0.5
2015-Aug-01 04:33N 39°13' E 009°04'6 6.4
2015-Aug-01 03:33N 39°07' E 009°07'1313.3
2015-Aug-01 02:33N 38°60' E 009°22'1414.1
2015-Aug-01 01:33N 38°52' E 009°37'1413.6
2015-Aug-01 00:34N 38°45' E 009°51'1413.5
2015-Jul-31 23:33N 38°38' E 010°06'1313.4
2015-Jul-31 22:33N 38°30' E 010°20'1413.5
2015-Jul-31 21:33N 38°23' E 010°35'1313.4
2015-Jul-31 20:33N 38°15' E 010°49'1413.6
2015-Jul-31 19:33N 38°08' E 011°03'1413.9
2015-Jul-31 18:33N 38°00' E 011°18'1514.3
2015-Jul-31 17:33N 37°52' E 011°33'1414.4
2015-Jul-31 16:33N 37°44' E 011°48'1413.8
2015-Jul-31 15:34N 37°37' E 012°03'1414.1
2015-Jul-31 14:34N 37°29' E 012°18'1414.2
2015-Jul-31 13:34N 37°22' E 012°33'1414.2
2015-Jul-31 12:33N 37°15' E 012°49'1414.1
2015-Jul-31 11:33N 37°09' E 013°05'1413.9
2015-Jul-31 10:32N 37°03' E 013°21'1313.5
2015-Jul-31 09:33N 36°58' E 013°37'1413.6
2015-Jul-31 08:33N 36°53' E 013°52'1613.7
2015-Jul-31 07:23N 36°46' E 014°11'1113.4
2015-Jul-31 06:33N 36°42' E 014°23'1413.7
2015-Jul-31 05:33N 36°36' E 014°39'1313.0
2015-Jul-31 04:33N 36°33' E 014°54'2613.1
2015-Jul-31 02:33N 36°32' E 015°27'1312.9
2015-Jul-31 01:34N 36°31' E 015°43'1312.9
2015-Jul-31 00:33N 36°31' E 015°59'36513.0
2015-Jul-29 20:34N 36°48' E 023°33'1414.1
2015-Jul-29 19:33N 36°60' E 023°43'1814.2
2015-Jul-29 18:19N 37°15' E 023°54'1114.4
2015-Jul-29 17:33N 37°24' E 024°02'3014.2
2015-Jul-29 15:28N 37°48' E 024°23'95 2.7
2015-Jul-28 04:16N 37°55' E 026°22'913.0
2015-Jul-28 03:33N 37°47' E 026°28'2612.2
2015-Jul-28 01:27N 37°23' E 026°39'1212.7
2015-Jul-28 00:33N 37°12' E 026°40'1212.2
2015-Jul-27 23:33N 37°00' E 026°45'1212.1
2015-Jul-27 22:33N 36°49' E 026°50'1212.3
2015-Jul-27 21:33N 36°37' E 026°55'1211.7
2015-Jul-27 20:33N 36°32' E 027°08'1312.6
2015-Jul-27 19:33N 36°30' E 027°24'3912.9
2015-Jul-27 16:33N 36°30' E 028°12'  
Track history (hours):
 
Tides and Currents Weather Stations Pressure Air Temp Water Temp Dewpoint Dewpoint Depression Visibility Wind Speed Wind Dir Waves Ship Positions

Hansa Limburg

Last reported at 2015-Aug-05 09:33 UTC. Time now 2015-Aug-05 10:31 UTC.
Position N 40°50' E 014°17'.

Length 175.5 m; beam 27.4 m; draft 10.9 m.

Type: Ship (hazmat cat A). MMSI: 636090980.

Date/timePositionNaut miles runAvg speedWind from/ knotsBaromVisibWave heightAir tempDewpointWater temp
2015-Aug-05 09:33N 40°50' E 014°17'0 0.0
2015-Aug-05 08:33N 40°50' E 014°17'0 0.0
2015-Aug-05 07:33N 40°50' E 014°17'0 0.0
2015-Aug-05 06:33N 40°50' E 014°17'0 0.0
2015-Aug-05 05:24N 40°50' E 014°17'0 0.0
2015-Aug-05 04:33N 40°50' E 014°17'3 2.9
2015-Aug-05 03:33N 40°47' E 014°17'3 2.6
2015-Aug-05 02:32N 40°45' E 014°17'1212.3
2015-Aug-05 01:34N 40°39' E 014°03'1716.6
2015-Aug-05 00:33N 40°42' E 013°42'1817.8
2015-Aug-04 23:31N 40°55' E 013°25'1717.8
2015-Aug-04 22:33N 41°05' E 013°06'1817.8
2015-Aug-04 21:33N 41°15' E 012°46'1817.8
2015-Aug-04 20:33N 41°25' E 012°27'1817.9
2015-Aug-04 19:33N 41°35' E 012°07'1818.0
2015-Aug-04 18:34N 41°45' E 011°48'1817.6
2015-Aug-04 17:33N 41°55' E 011°28'1717.3
2015-Aug-04 16:33N 42°05' E 011°09'1717.4
2015-Aug-04 15:33N 42°15' E 010°50'1916.7
2015-Aug-04 14:23N 42°32' E 010°37'1518.4
2015-Aug-04 13:34N 42°47' E 010°33'1818.0
2015-Aug-04 12:34N 43°03' E 010°22'1817.9
2015-Aug-04 11:34N 43°20' E 010°15'1312.5
2015-Aug-04 10:34N 43°33' E 010°17'2 1.8
2015-Aug-04 09:31N 43°35' E 010°18'0 0.0
2015-Aug-04 08:28N 43°35' E 010°18'0 0.0
2015-Aug-04 07:33N 43°35' E 010°18'0 0.0
2015-Aug-04 06:28N 43°35' E 010°18'0 0.0
2015-Aug-04 05:31N 43°35' E 010°18'0 0.0
2015-Aug-04 04:31N 43°35' E 010°18'0 0.0
2015-Aug-04 03:33N 43°35' E 010°18'0 0.0
2015-Aug-04 02:33N 43°35' E 010°18'0 0.0
2015-Aug-04 01:33N 43°35' E 010°18'0 0.0
2015-Aug-04 00:33N 43°35' E 010°18'0 0.2
2015-Aug-03 23:33N 43°34' E 010°18'4 3.5
2015-Aug-03 22:33N 43°31' E 010°16'3 2.7
2015-Aug-03 21:33N 43°30' E 010°13'1414.2
2015-Aug-03 20:33N 43°34' E 009°54'1818.3
2015-Aug-03 19:33N 43°46' E 009°36'1818.2
2015-Aug-03 18:33N 43°59' E 009°17'1818.2
2015-Aug-03 17:33N 44°11' E 008°59'1616.5
2015-Aug-03 16:33N 44°23' E 008°43'4 3.4
2015-Aug-03 15:32N 44°25' E 008°47'0 0.0
2015-Aug-03 14:34N 44°25' E 008°47'0 0.0
2015-Aug-03 13:34N 44°25' E 008°47'0 0.0
2015-Aug-03 12:34N 44°25' E 008°47'0 0.0
2015-Aug-03 11:34N 44°25' E 008°47'0 0.0
2015-Aug-03 10:33N 44°25' E 008°47'0 0.0
2015-Aug-03 09:34N 44°25' E 008°47'0 0.0
2015-Aug-03 08:33N 44°25' E 008°47'0 0.0
2015-Aug-03 07:34N 44°25' E 008°47'0 0.0
2015-Aug-03 06:34N 44°25' E 008°47'0 0.0
2015-Aug-03 05:33N 44°25' E 008°47'0 0.0
2015-Aug-03 04:34N 44°25' E 008°47'0 0.2
2015-Aug-03 03:34N 44°25' E 008°47'4 4.2
2015-Aug-03 02:34N 44°22' E 008°43'5 5.5
2015-Aug-03 01:34N 44°18' E 008°48'1312.5
2015-Aug-03 00:33N 44°07' E 008°57'1312.5
2015-Aug-02 23:33N 43°56' E 009°06'1312.7
2015-Aug-02 22:33N 43°45' E 009°15'1312.6
2015-Aug-02 21:33N 43°34' E 009°23'1312.9
2015-Aug-02 20:33N 43°22' E 009°29'1313.1
2015-Aug-02 19:33N 43°10' E 009°35'1413.1
2015-Aug-02 18:30N 42°57' E 009°41'1212.4
2015-Aug-02 17:33N 42°45' E 009°43'1212.1
2015-Aug-02 16:32N 42°33' E 009°46'21411.8
2015-Aug-01 22:26N 38°60' E 009°25'1214.0
2015-Aug-01 21:33N 39°05' E 009°11'9 9.2
2015-Aug-01 20:33N 39°13' E 009°04'0 0.0
2015-Aug-01 19:33N 39°13' E 009°04'0 0.0
2015-Aug-01 18:33N 39°13' E 009°04'0 0.0
2015-Aug-01 17:31N 39°13' E 009°04'0 0.0
2015-Aug-01 16:33N 39°13' E 009°04'0 0.0
2015-Aug-01 15:33N 39°13' E 009°04'0 0.0
2015-Aug-01 14:32N 39°13' E 009°04'0 0.0
2015-Aug-01 13:33N 39°13' E 009°04'0 0.0
2015-Aug-01 12:33N 39°13' E 009°04'0 0.0
2015-Aug-01 11:33N 39°13' E 009°04'0 0.0
2015-Aug-01 10:32N 39°13' E 009°04'0 0.0
2015-Aug-01 09:33N 39°13' E 009°04'0 0.0
2015-Aug-01 08:33N 39°13' E 009°04'0 0.0
2015-Aug-01 07:33N 39°13' E 009°04'0 0.0
2015-Aug-01 06:33N 39°13' E 009°04'0 0.0
2015-Aug-01 05:33N 39°13' E 009°04'0 0.5
2015-Aug-01 04:33N 39°13' E 009°04'6 6.4
2015-Aug-01 03:33N 39°07' E 009°07'1313.3
2015-Aug-01 02:33N 38°60' E 009°22'1414.1
2015-Aug-01 01:33N 38°52' E 009°37'1413.6
2015-Aug-01 00:34N 38°45' E 009°51'1413.5
2015-Jul-31 23:33N 38°38' E 010°06'1313.4
2015-Jul-31 22:33N 38°30' E 010°20'1413.5
2015-Jul-31 21:33N 38°23' E 010°35'1313.4
2015-Jul-31 20:33N 38°15' E 010°49'1413.6
2015-Jul-31 19:33N 38°08' E 011°03'1413.9
2015-Jul-31 18:33N 38°00' E 011°18'1514.3
2015-Jul-31 17:33N 37°52' E 011°33'1414.4
2015-Jul-31 16:33N 37°44' E 011°48'1413.8
2015-Jul-31 15:34N 37°37' E 012°03'1414.1
2015-Jul-31 14:34N 37°29' E 012°18'1414.2
2015-Jul-31 13:34N 37°22' E 012°33'1414.2
2015-Jul-31 12:33N 37°15' E 012°49'1414.1
2015-Jul-31 11:33N 37°09' E 013°05'1413.9
2015-Jul-31 10:32N 37°03' E 013°21'1313.5
2015-Jul-31 09:33N 36°58' E 013°37'1413.6
2015-Jul-31 08:33N 36°53' E 013°52'1613.7
2015-Jul-31 07:23N 36°46' E 014°11'1113.4
2015-Jul-31 06:33N 36°42' E 014°23'1413.7
2015-Jul-31 05:33N 36°36' E 014°39'1313.0
2015-Jul-31 04:33N 36°33' E 014°54'2613.1
2015-Jul-31 02:33N 36°32' E 015°27'1312.9
2015-Jul-31 01:34N 36°31' E 015°43'1312.9
2015-Jul-31 00:33N 36°31' E 015°59'36513.0
2015-Jul-29 20:34N 36°48' E 023°33'1414.1
2015-Jul-29 19:33N 36°60' E 023°43'1814.2
2015-Jul-29 18:19N 37°15' E 023°54'1114.4
2015-Jul-29 17:33N 37°24' E 024°02'3014.2
2015-Jul-29 15:28N 37°48' E 024°23'95 2.7
2015-Jul-28 04:16N 37°55' E 026°22'913.0
2015-Jul-28 03:33N 37°47' E 026°28'2612.2
2015-Jul-28 01:27N 37°23' E 026°39'1212.7
2015-Jul-28 00:33N 37°12' E 026°40'1212.2
2015-Jul-27 23:33N 37°00' E 026°45'1212.1
2015-Jul-27 22:33N 36°49' E 026°50'1212.3
2015-Jul-27 21:33N 36°37' E 026°55'1211.7
2015-Jul-27 20:33N 36°32' E 027°08'1312.6
2015-Jul-27 19:33N 36°30' E 027°24'3912.9
2015-Jul-27 16:33N 36°30' E 028°12'  

Dump ship's entire track history